Accueil
METAR-TAF:

METAR-TAF

Aéroports :

Portland-Hillsboro Airport

Hillsboro, Oregon, États-Unis

latitude: 45-32-53N, longitude: 122-57-16W, altitude: 62 m

Observation

Le bulletin a été fait il y a 1 heure et 1 minutes, à 16:53 UTC
Vent 3 kt de ouest/nord-ouest
Température 1°C
Humidité 93%
Pression 1021 hPa
Visibilité: 16.1 km
Ciel clair

METAR: KHIO 191653Z 30003KT 10SM CLR 01/00 A3016 RMK AO2 SLP217 T00110000

Heure: 09:54 (17:54 UTC)

Prévision

Le bulletin a été fait il y a 28 minutes, à 17:26 UTC
Prévision valable du 19 à 18 UTC au 20 à 18 UTC
Vent 3 kt de direction variable
Visibilité: 10 km
Ciel clair
A partir de 19 à 2000 UTC
Vent 3 kt de direction variable
Visibilité: 10 km
Ciel clair
A partir de 20 à 0500 UTC
Vent kt de nord
Visibilité: 10 km
Ciel clair

TAF: KHIO 191726Z 1918/2018 VRB03KT P6SM SKC FM192000 VRB03KT P6SM SKC FM200500 00000KT P6SM SKC

Observations et prévisions météorologiques de plus de 4000 aéroports (messages METAR et TAF).

Les stations disponibles sont représentées par des disques jaunes et rouges sur la carte.

Passer la souris dessus pour voir le nom de la station.

Cliquer dessus pour voir les observations et prévisions météorologiques.

Pour changer de carte: cliquez sur les boutons verts avec une croix noire pour zoomer, sur le bouton vert avec un tiret pour effectuer un zoom arrière, ou sur les flèches vertes pour les cartes adjacentes.


METAR-TAF: